New Boston, MO (63557)

10:27 PM CDT on September 14, 2014 (GMT -0500)
North Central Missouri | Change Station
CLOSE
Current Station
Personal Weather Station
Location: Browning, MO
Elevation: 810 ft
Nearby Weather Stations
Active Advisory: Flood Warning

Elev 810 ft 40.04 °N, 93.16 °W | Updated 8 seconds ago

Partly Cloudy
Partly Cloudy
60.7 °F
Feels Like 60.7 °F
N
0.0
Wind Variable Wind from SSW
Gusts 0.0 mph

Today
High -- | Low -- °F
--% Chance of Precip.
Yesterday
High -- | Low -- °F
Precip. -- in
6:51 AM 7:21 PM
Waning Gibbous, 59% visible
Pressure 30.16 in
Visibility 10.0 miles
Clouds Few 4800 ft
Dew Point 58 °F
Humidity 92%
Rainfall 2.15 in
Snow Depth Not available.
UV 0 out of 12
Pollen 7.10 out of 12
Air Quality Not available.
Flu Activity Not available.
METAR KIRK 150255Z AUTO 00000KT 10SM FEW048 13/11 A3015 RMK AO2 SLP213 T01330111 53002

More Conditions Fewer Conditions

Pressure 30.16 in
Visibility 10.0 miles
Clouds Few 4800 ft
Dew Point 58 °F
Humidity 92%
Rainfall 2.15 in
Snow Depth Not available.
UV 0 out of 12
Pollen 7.10 out of 12
Air Quality Not available.
Flu Activity Not available.
METAR KIRK 150255Z AUTO 00000KT 10SM FEW048 13/11 A3015 RMK AO2 SLP213 T01330111 53002

More Conditions Fewer Conditions

10-Day Weather Forecast

Almanac

Astronomy

Sep. 14, 2014 Rise Set
Actual Time 6:51 AM CDT 7:21 PM CDT
Civil Twilight 6:24 AM CDT 7:48 PM CDT
Nautical Twilight 5:52 AM CDT 8:20 PM CDT
Astronomical Twilight 5:19 AM CDT 8:53 PM CDT
Moon 11:15 PM CDT (9/14) 12:57 PM CDT (9/14)
Length of Visible Light 13h 24m
Length of Day
12h 30m
Tomorrow will be 2m 36s shorter.
Waning Gibbous, 59% of the Moon is Illuminated
Today
Waning Gibbous
Sep 15
Last Quarter
Sep 24
New
Oct 1
First Quarter
Oct 8
Full

Today's Extremes

State Highs State Lows

Community

WunderPhotos

Upload Photos

1,753,390 photos uploaded!

WunderBlogs® & News

Nearby

Snow Depth

Station Depth Elevation
No new snow has been reported.

Earthquake Activity

City Distance Mag. Time & Date
No recent earthquake activity has been reported nearby.
Minimum magnitude displayed is 2.5.

Coastal Water Temperatures

Place Temperature
No Stations Reporting

Nearby Weather Stations